Time;durP1;ratioP1;P1;durP2;ratioP2;P2;SDS_P1;SDS_P2;PMS_P1;PMS_P2;Temp;Humidity;BMP_temperature;BMP_pressure;BME280_temperature;BME280_humidity;BME280_pressure;Samples;Min_cycle;Max_cycle;Signal;HPM_P1;HPM_P2
2021/10/17 07:23:51;;;;;;;6.85;6.15;;;;;;;;;;5639235;22;20474;-48
2021/10/17 07:26:19;;;;;;;6.88;6.15;;;;;;;;;;5009540;28;20408;-47
2021/10/17 07:28:46;;;;;;;7.50;6.30;;;;;;;;;;4996993;28;20399;-49
2021/10/17 07:31:12;;;;;;;9.75;6.15;;;;;;;;;;5007488;28;20400;-52
2021/10/17 07:33:38;;;;;;;7.78;5.57;;;;;;;;;;5010853;28;20392;-52
2021/10/17 07:36:04;;;;;;;7.00;5.72;;;;;;;;;;5007490;28;20377;-50
2021/10/17 07:38:30;;;;;;;6.55;5.85;;;;;;;;;;5000100;28;20592;-46
2021/10/17 07:40:57;;;;;;;6.37;5.60;;;;;;;;;;5003491;28;20389;-50
2021/10/17 07:43:23;;;;;;;6.22;5.28;;;;;;;;;;5004132;28;20427;-52
2021/10/17 07:45:49;;;;;;;6.10;5.45;;;;;;;;;;4984640;28;20765;-50
2021/10/17 07:48:15;;;;;;;6.95;5.22;;;;;;;;;;4991579;28;20404;-52
2021/10/17 07:50:41;;;;;;;6.60;5.10;;;;;;;;;;5011159;28;20369;-52
2021/10/17 07:53:08;;;;;;;7.20;5.55;;;;;;;;;;5008364;28;20382;-51
2021/10/17 07:55:34;;;;;;;5.85;5.00;;;;;;;;;;4982532;28;20494;-50
2021/10/17 07:58:00;;;;;;;7.03;4.90;;;;;;;;;;5010654;28;20412;-51
2021/10/17 08:00:27;;;;;;;5.80;4.97;;;;;;;;;;5008023;28;20407;-50
2021/10/17 08:02:53;;;;;;;5.40;4.90;;;;;;;;;;5004167;28;20370;-50
2021/10/17 08:05:22;;;;;;;6.65;4.70;;;;;;;;;;4986109;28;20500;-51
2021/10/17 08:07:49;;;;;;;7.03;4.93;;;;;;;;;;5004453;28;20395;-50
2021/10/17 08:10:15;;;;;;;5.65;4.88;;;;;;;;;;5002313;28;20381;-49
2021/10/17 08:12:41;;;;;;;5.55;4.68;;;;;;;;;;5008555;28;20999;-51
2021/10/17 08:15:08;;;;;;;5.20;4.70;;;;;;;;;;4989907;28;20381;-49
2021/10/17 08:17:35;;;;;;;5.50;4.75;;;;;;;;;;4982856;28;20455;-47
2021/10/17 08:20:01;;;;;;;5.82;4.68;;;;;;;;;;5003218;28;20385;-47
2021/10/17 08:22:27;;;;;;;6.43;4.85;;;;;;;;;;5000028;28;20370;-47
2021/10/17 08:24:54;;;;;;;6.15;4.70;;;;;;;;;;4986120;28;20506;-49
2021/10/17 08:27:20;;;;;;;5.60;4.80;;;;;;;;;;5009761;28;20845;-52
2021/10/17 08:29:46;;;;;;;5.87;4.97;;;;;;;;;;5009606;28;20395;-57
2021/10/17 08:32:12;;;;;;;5.72;4.60;;;;;;;;;;5008548;28;20475;-52
2021/10/17 08:34:41;;;;;;;6.18;5.00;;;;;;;;;;4991204;28;20406;-47
2021/10/17 08:37:11;;;;;;;5.23;4.70;;;;;;;;;;5002501;28;20416;-48
2021/10/17 08:39:37;;;;;;;7.13;5.90;;;;;;;;;;5008522;28;20385;-50
2021/10/17 08:42:06;;;;;;;6.60;5.32;;;;;;;;;;5007203;28;20459;-48
2021/10/17 08:44:32;;;;;;;5.65;5.15;;;;;;;;;;5000164;28;20391;-51
2021/10/17 08:47:00;;;;;;;7.80;5.53;;;;;;;;;;4986870;28;20404;-50
2021/10/17 08:49:27;;;;;;;5.85;5.20;;;;;;;;;;5006616;28;20393;-49
2021/10/17 08:51:53;;;;;;;6.68;5.80;;;;;;;;;;4991346;28;20389;-50
2021/10/17 08:54:20;;;;;;;6.50;5.80;;;;;;;;;;4978546;28;20380;-49
2021/10/17 08:56:49;;;;;;;6.37;5.40;;;;;;;;;;4996093;28;20386;-50
2021/10/17 08:59:17;;;;;;;6.85;5.80;;;;;;;;;;4990631;28;20451;-49
2021/10/17 09:01:46;;;;;;;8.05;5.85;;;;;;;;;;5008722;28;20873;-49
2021/10/17 09:04:15;;;;;;;7.78;5.63;;;;;;;;;;5004415;28;20427;-50
2021/10/17 09:06:41;;;;;;;7.30;6.50;;;;;;;;;;5005935;28;20403;-49
2021/10/17 09:09:07;;;;;;;8.70;6.80;;;;;;;;;;5009241;28;20802;-49
2021/10/17 09:11:36;;;;;;;7.10;6.40;;;;;;;;;;4978311;28;20906;-48
2021/10/17 09:14:05;;;;;;;7.50;5.82;;;;;;;;;;5004931;28;20445;-49
2021/10/17 09:16:35;;;;;;;8.75;6.47;;;;;;;;;;4994027;28;20481;-49
2021/10/17 09:19:06;;;;;;;15.38;11.65;;;;;;;;;;4983916;28;20426;-50
2021/10/17 09:21:33;;;;;;;24.55;19.58;;;;;;;;;;5006832;28;20387;-52
2021/10/17 09:23:59;;;;;;;30.98;24.85;;;;;;;;;;4990789;28;20424;-49
2021/10/17 09:26:25;;;;;;;31.55;26.33;;;;;;;;;;4985987;28;20476;-49
2021/10/17 09:28:51;;;;;;;29.02;24.95;;;;;;;;;;4977895;28;20402;-52
2021/10/17 09:31:19;;;;;;;23.05;19.80;;;;;;;;;;4990577;28;20447;-49
2021/10/17 09:33:50;;;;;;;19.75;17.65;;;;;;;;;;4990841;28;20476;-48
2021/10/17 09:36:29;;;;;;;16.85;15.00;;;;;;;;;;5008619;28;20869;-48
2021/10/17 09:39:10;;;;;;;15.65;13.02;;;;;;;;;;4983148;28;20548;-49
2021/10/17 09:41:49;;;;;;;14.33;12.03;;;;;;;;;;5003271;28;20468;-48
2021/10/17 09:44:15;;;;;;;14.23;11.50;;;;;;;;;;4990452;28;20773;-49
2021/10/17 09:46:55;;;;;;;12.90;11.05;;;;;;;;;;5005747;28;21119;-48
2021/10/17 09:49:22;;;;;;;10.60;9.48;;;;;;;;;;4990593;28;20939;-50
2021/10/17 09:51:48;;;;;;;10.73;9.63;;;;;;;;;;5008609;28;20460;-50
2021/10/17 09:54:14;;;;;;;10.50;9.40;;;;;;;;;;4989378;28;20450;-48
2021/10/17 09:56:43;;;;;;;10.10;8.85;;;;;;;;;;4990380;28;20396;-49
2021/10/17 09:59:10;;;;;;;9.13;8.20;;;;;;;;;;4995111;28;20402;-51
2021/10/17 10:01:36;;;;;;;8.75;7.70;;;;;;;;;;5004928;28;20384;-48
2021/10/17 10:04:05;;;;;;;8.63;7.72;;;;;;;;;;4985663;28;20865;-49
2021/10/17 10:06:32;;;;;;;8.10;7.30;;;;;;;;;;5008810;28;20376;-46
2021/10/17 10:09:00;;;;;;;8.13;7.25;;;;;;;;;;5008216;28;20465;-51
2021/10/17 10:11:27;;;;;;;8.35;7.45;;;;;;;;;;5007924;28;20825;-49
2021/10/17 10:13:55;;;;;;;8.17;7.30;;;;;;;;;;4989995;28;20404;-47
2021/10/17 10:16:23;;;;;;;7.75;7.00;;;;;;;;;;4994969;28;20389;-47
2021/10/17 10:18:53;;;;;;;7.82;7.00;;;;;;;;;;5007940;28;20515;-48
2021/10/17 10:21:20;;;;;;;7.43;6.72;;;;;;;;;;4990024;28;20888;-47
2021/10/17 10:23:48;;;;;;;7.70;6.80;;;;;;;;;;4989196;28;20423;-48
2021/10/17 10:26:14;;;;;;;7.10;6.40;;;;;;;;;;4989896;28;20460;-50
2021/10/17 10:28:41;;;;;;;7.65;6.55;;;;;;;;;;5007162;28;20457;-48
2021/10/17 10:31:07;;;;;;;7.63;6.53;;;;;;;;;;5005043;28;20373;-48
2021/10/17 10:33:44;;;;;;;7.38;6.63;;;;;;;;;;4988968;28;20389;-48
2021/10/17 10:36:16;;;;;;;6.88;6.18;;;;;;;;;;4986125;28;20400;-48
2021/10/17 10:38:51;;;;;;;7.43;6.37;;;;;;;;;;5006977;28;20449;-50
2021/10/17 10:41:19;;;;;;;7.95;6.72;;;;;;;;;;4983613;28;20385;-50
2021/10/17 10:43:45;;;;;;;8.05;6.70;;;;;;;;;;4989250;28;20463;-47
2021/10/17 10:46:14;;;;;;;8.00;6.50;;;;;;;;;;5008281;28;20470;-47
2021/10/17 10:48:47;;;;;;;7.93;6.90;;;;;;;;;;4989625;28;20503;-48
2021/10/17 10:51:35;;;;;;;8.35;6.80;;;;;;;;;;4989984;28;20450;-49
2021/10/17 10:54:04;;;;;;;7.40;6.70;;;;;;;;;;5005835;28;20377;-49
2021/10/17 10:56:43;;;;;;;7.53;6.60;;;;;;;;;;4988583;28;20455;-48
2021/10/17 10:59:13;;;;;;;7.55;6.75;;;;;;;;;;4992577;28;20905;-49
2021/10/17 11:01:51;;;;;;;8.40;7.15;;;;;;;;;;5011527;28;20389;-48
2021/10/17 11:04:36;;;;;;;8.50;7.25;;;;;;;;;;4998600;28;20459;-47
2021/10/17 11:07:21;;;;;;;8.85;6.97;;;;;;;;;;5010690;28;20865;-49
2021/10/17 11:09:48;;;;;;;8.30;7.40;;;;;;;;;;5011006;28;20460;-51
2021/10/17 11:12:33;;;;;;;9.10;6.95;;;;;;;;;;5011198;28;20383;-47
2021/10/17 11:15:01;;;;;;;8.52;7.28;;;;;;;;;;5010024;28;20853;-48
2021/10/17 11:17:31;;;;;;;7.82;7.03;;;;;;;;;;5010592;28;20412;-49
2021/10/17 11:19:57;;;;;;;7.50;6.80;;;;;;;;;;4992723;28;20873;-48
2021/10/17 11:22:25;;;;;;;7.85;7.05;;;;;;;;;;5010564;28;20556;-47
2021/10/17 11:24:52;;;;;;;8.03;7.10;;;;;;;;;;4993309;28;20435;-48
2021/10/17 11:27:18;;;;;;;8.63;6.93;;;;;;;;;;4993067;28;20468;-48
2021/10/17 11:29:50;;;;;;;8.18;7.38;;;;;;;;;;5010672;28;20396;-50
2021/10/17 11:32:19;;;;;;;8.23;7.00;;;;;;;;;;5010936;28;20377;-48
2021/10/17 11:34:58;;;;;;;8.10;7.28;;;;;;;;;;4993125;28;20385;-48
2021/10/17 11:37:26;;;;;;;9.03;7.60;;;;;;;;;;4992892;28;20578;-48
2021/10/17 11:39:55;;;;;;;8.02;7.22;;;;;;;;;;5010313;28;20870;-49
2021/10/17 11:42:23;;;;;;;8.23;7.43;;;;;;;;;;5006782;28;20393;-49
2021/10/17 11:44:49;;;;;;;9.15;7.90;;;;;;;;;;5008764;28;20379;-47
2021/10/17 11:47:21;;;;;;;9.60;7.77;;;;;;;;;;5009016;28;20409;-47
2021/10/17 19:57:03;;;;;;;20.08;17.92;;;;;;;;;;5630535;22;20417;-48
2021/10/17 19:59:29;;;;;;;23.23;18.83;;;;;;;;;;5073278;28;20728;-50
2021/10/17 20:01:55;;;;;;;26.23;18.45;;;;;;;;;;5089687;28;20374;-49
2021/10/17 20:04:21;;;;;;;29.23;18.02;;;;;;;;;;5100146;28;21771;-47
2021/10/17 20:06:47;;;;;;;23.90;17.40;;;;;;;;;;5090238;28;20397;-51
2021/10/17 20:09:13;;;;;;;22.60;17.33;;;;;;;;;;5086120;28;21225;-49
2021/10/17 20:11:39;;;;;;;24.27;17.08;;;;;;;;;;5102743;28;20422;-50
2021/10/17 20:14:05;;;;;;;25.47;18.30;;;;;;;;;;5104894;28;20768;-48
2021/10/17 20:16:33;;;;;;;22.70;16.52;;;;;;;;;;5096660;28;20452;-49
2021/10/17 20:19:06;;;;;;;21.27;16.43;;;;;;;;;;5089992;28;20413;-52
2021/10/17 20:21:32;;;;;;;21.42;16.30;;;;;;;;;;5099978;28;20821;-50
2021/10/17 20:23:58;;;;;;;22.95;16.10;;;;;;;;;;5078291;28;20391;-51
2021/10/17 20:26:25;;;;;;;20.87;15.60;;;;;;;;;;5100972;28;20469;-50
2021/10/17 20:28:52;;;;;;;24.00;16.00;;;;;;;;;;5103433;28;20402;-49
2021/10/17 20:31:18;;;;;;;22.50;16.17;;;;;;;;;;5088185;28;20375;-47
2021/10/17 20:33:47;;;;;;;21.65;15.85;;;;;;;;;;5085931;28;20489;-48
2021/10/17 20:36:36;;;;;;;20.17;14.50;;;;;;;;;;5086972;28;20468;-48
2021/10/17 20:39:18;;;;;;;17.90;15.00;;;;;;;;;;5106337;28;20430;-47
2021/10/17 20:41:44;;;;;;;18.92;14.07;;;;;;;;;;5092118;28;20430;-52
2021/10/17 20:44:11;;;;;;;18.98;14.70;;;;;;;;;;5081828;28;20379;-52
2021/10/17 20:46:39;;;;;;;17.65;14.13;;;;;;;;;;5058700;28;20392;-53
2021/10/17 20:49:05;;;;;;;17.52;14.43;;;;;;;;;;5076802;28;20369;-51
2021/10/17 20:51:31;;;;;;;18.67;14.32;;;;;;;;;;5085666;28;20420;-51
2021/10/17 20:53:58;;;;;;;17.02;14.05;;;;;;;;;;5099273;28;20437;-52
2021/10/17 20:56:24;;;;;;;17.67;14.50;;;;;;;;;;5088081;28;20388;-52
